Time;durP1;ratioP1;P1;durP2;ratioP2;P2;SDS_P1;SDS_P2;PMS_P1;PMS_P2;Temp;Humidity;BMP_temperature;BMP_pressure;BME280_temperature;BME280_humidity;BME280_pressure;Samples;Min_cycle;Max_cycle;Signal;HPM_P1;HPM_P2
2021/06/15 00:00:36;;;;;;;;;;;24.20;60.10;;;;;;4910921;29;19929;-81
2021/06/15 00:03:02;;;;;;;;;;;24.10;60.20;;;;;;4942584;29;19941;-81
2021/06/15 00:05:29;;;;;;;;;;;24.20;60.40;;;;;;4927029;29;20037;-81
2021/06/15 00:07:55;;;;;;;;;;;24.10;60.60;;;;;;4927040;29;19930;-82
2021/06/15 00:10:22;;;;;;;;;;;24.00;60.80;;;;;;4942504;29;20433;-82
2021/06/15 00:12:49;;;;;;;;;;;24.00;60.90;;;;;;4926794;29;20072;-81
2021/06/15 00:15:15;;;;;;;;;;;24.00;61.00;;;;;;4941860;28;20306;-81
2021/06/15 00:17:42;;;;;;;;;;;24.00;61.00;;;;;;4926408;29;19944;-80
2021/06/15 00:20:08;;;;;;;;;;;24.00;61.00;;;;;;4942529;28;19983;-82
2021/06/15 00:22:34;;;;;;;;;;;24.00;61.00;;;;;;4942791;28;19930;-81
2021/06/15 00:25:00;;;;;;;;;;;24.10;61.00;;;;;;4926328;29;20417;-80
2021/06/15 00:27:29;;;;;;;;;;;24.10;60.90;;;;;;4974141;28;19930;-80
2021/06/15 00:29:55;;;;;;;;;;;24.10;60.80;;;;;;4927063;29;19969;-81
2021/06/15 00:32:22;;;;;;;;;;;24.20;60.80;;;;;;4942190;28;19984;-80
2021/06/15 00:34:48;;;;;;;;;;;24.20;60.80;;;;;;4926992;28;20407;-81
2021/06/15 00:37:14;;;;;;;;;;;24.20;60.60;;;;;;4926556;28;19949;-80
2021/06/15 00:39:40;;;;;;;;;;;24.20;60.70;;;;;;4941947;29;19968;-80
2021/06/15 00:42:06;;;;;;;;;;;24.30;60.90;;;;;;4941954;29;19934;-83
2021/06/15 00:44:35;;;;;;;;;;;24.30;61.00;;;;;;4926216;29;19941;-81
2021/06/15 00:47:02;;;;;;;;;;;24.30;61.00;;;;;;4926187;29;20396;-81
2021/06/15 00:49:32;;;;;;;;;;;24.30;61.20;;;;;;4941835;29;19938;-82
2021/06/15 00:51:58;;;;;;;;;;;24.30;61.10;;;;;;4926883;29;19968;-82
2021/06/15 00:54:24;;;;;;;;;;;24.40;61.10;;;;;;4941965;29;19934;-80
2021/06/15 00:56:51;;;;;;;;;;;24.40;61.00;;;;;;4911547;29;19930;-80
2021/06/15 00:59:17;;;;;;;;;;;24.40;60.90;;;;;;4927621;29;20413;-80
2021/06/15 01:01:43;;;;;;;;;;;24.50;60.90;;;;;;4958946;28;20447;-81
2021/06/15 01:04:10;;;;;;;;;;;24.50;60.90;;;;;;4910675;29;20000;-81
2021/06/15 01:06:41;;;;;;;;;;;24.60;61.00;;;;;;4926559;29;19934;-84
2021/06/15 01:09:32;;;;;;;;;;;24.60;61.00;;;;;;4941606;29;19930;-82
2021/06/15 01:12:12;;;;;;;;;;;24.60;61.00;;;;;;4941689;29;20387;-82
2021/06/15 01:14:41;;;;;;;;;;;24.60;61.10;;;;;;4926312;29;20356;-80
2021/06/15 01:17:36;;;;;;;;;;;24.50;61.00;;;;;;4942401;29;19930;-82
2021/06/15 01:20:05;;;;;;;;;;;24.50;61.20;;;;;;4941395;29;20012;-81
2021/06/15 01:22:43;;;;;;;;;;;24.50;61.30;;;;;;4940404;29;19930;-82
2021/06/15 01:25:27;;;;;;;;;;;24.50;61.20;;;;;;4940827;29;19938;-81
2021/06/15 01:27:59;;;;;;;;;;;24.50;61.20;;;;;;4928210;29;20024;-80
2021/06/15 01:30:31;;;;;;;;;;;24.50;61.20;;;;;;4961548;28;20375;-81
2021/06/15 01:32:59;;;;;;;;;;;24.50;61.20;;;;;;4929656;28;20037;-79
2021/06/15 01:35:25;;;;;;;;;;;24.50;61.10;;;;;;4929279;29;19945;-80
2021/06/15 01:38:22;;;;;;;;;;;24.50;61.10;;;;;;4929899;29;20028;-81
2021/06/15 01:40:51;;;;;;;;;;;24.50;61.00;;;;;;4941219;29;20032;-81
2021/06/15 01:43:30;;;;;;;;;;;24.50;61.00;;;;;;4945232;29;19989;-81
2021/06/15 01:45:56;;;;;;;;;;;24.60;61.30;;;;;;4944743;29;19972;-80
2021/06/15 01:48:39;;;;;;;;;;;24.60;61.30;;;;;;4929250;28;19942;-80
2021/06/15 01:51:05;;;;;;;;;;;24.60;61.40;;;;;;4945293;29;19949;-80
2021/06/15 01:53:32;;;;;;;;;;;24.60;61.60;;;;;;4913638;29;19941;-81
2021/06/15 01:56:01;;;;;;;;;;;24.60;61.80;;;;;;4928784;29;19945;-81
2021/06/15 01:58:28;;;;;;;;;;;24.60;61.80;;;;;;4929179;29;19937;-82
2021/06/15 02:00:55;;;;;;;;;;;24.60;61.70;;;;;;4945138;28;19996;-80
2021/06/15 02:03:21;;;;;;;;;;;24.60;61.70;;;;;;4944852;29;19930;-81
2021/06/15 02:05:49;;;;;;;;;;;24.60;61.70;;;;;;4944603;29;19934;-81
2021/06/15 02:08:21;;;;;;;;;;;24.70;61.70;;;;;;4945811;28;19937;-81
2021/06/15 02:10:48;;;;;;;;;;;24.70;61.70;;;;;;4945847;28;19961;-82
2021/06/15 02:13:14;;;;;;;;;;;24.80;61.60;;;;;;4976316;28;19957;-80
2021/06/15 02:15:40;;;;;;;;;;;24.80;61.60;;;;;;4945593;29;19930;-81
2021/06/15 02:18:06;;;;;;;;;;;24.80;61.50;;;;;;4928535;29;20414;-81
2021/06/15 02:20:34;;;;;;;;;;;24.80;61.50;;;;;;4928429;28;19941;-82
2021/06/15 02:23:02;;;;;;;;;;;24.80;61.40;;;;;;4928728;29;20372;-82
2021/06/15 02:25:36;;;;;;;;;;;24.90;61.40;;;;;;4944576;28;19930;-81
2021/06/15 02:28:03;;;;;;;;;;;25.00;61.40;;;;;;4944611;28;19996;-81
2021/06/15 02:30:29;;;;;;;;;;;25.00;61.20;;;;;;4928059;29;19930;-82
2021/06/15 02:32:57;;;;;;;;;;;25.10;61.10;;;;;;4928022;29;19934;-81
2021/06/15 02:35:24;;;;;;;;;;;25.20;61.00;;;;;;4928461;29;19993;-81
2021/06/15 02:38:12;;;;;;;;;;;25.30;61.00;;;;;;4928457;29;19965;-81
2021/06/15 02:40:38;;;;;;;;;;;25.30;60.90;;;;;;4943401;29;19934;-81
2021/06/15 02:43:04;;;;;;;;;;;25.40;60.80;;;;;;4928304;29;19934;-82
2021/06/15 02:45:31;;;;;;;;;;;25.40;60.70;;;;;;4928863;29;20435;-82
2021/06/15 02:48:05;;;;;;;;;;;25.40;60.50;;;;;;4944055;29;20420;-82
2021/06/15 02:50:31;;;;;;;;;;;25.50;60.50;;;;;;4929792;29;19934;-81
2021/06/15 02:53:04;;;;;;;;;;;25.50;60.50;;;;;;4912068;29;19934;-81
2021/06/15 02:55:33;;;;;;;;;;;25.50;60.30;;;;;;4912578;29;19934;-81
2021/06/15 02:58:00;;;;;;;;;;;25.60;60.30;;;;;;4928428;29;19965;-82
2021/06/15 03:00:26;;;;;;;;;;;25.60;60.30;;;;;;4927914;29;19934;-81
2021/06/15 03:02:52;;;;;;;;;;;25.60;60.30;;;;;;4943509;28;19937;-82
2021/06/15 03:05:18;;;;;;;;;;;25.60;60.30;;;;;;4912120;29;19934;-82
2021/06/15 03:07:45;;;;;;;;;;;25.50;60.30;;;;;;4943698;29;19930;-82
2021/06/15 03:10:13;;;;;;;;;;;25.50;60.40;;;;;;4927778;29;19934;-81
2021/06/15 03:13:07;;;;;;;;;;;25.60;60.50;;;;;;4927472;29;20017;-82
2021/06/15 03:15:42;;;;;;;;;;;25.60;60.40;;;;;;4930526;29;20381;-82
2021/06/15 03:18:23;;;;;;;;;;;25.60;60.40;;;;;;4927966;29;19933;-82
2021/06/15 03:20:49;;;;;;;;;;;25.60;60.40;;;;;;4943790;29;19942;-82
2021/06/15 03:23:22;;;;;;;;;;;25.70;60.40;;;;;;4927393;29;19930;-82
2021/06/15 03:25:48;;;;;;;;;;;25.80;60.40;;;;;;4928188;29;19930;-82
2021/06/15 03:28:21;;;;;;;;;;;25.90;60.20;;;;;;4927177;29;19930;-81
2021/06/15 03:30:47;;;;;;;;;;;26.00;60.10;;;;;;4927685;29;19940;-81
2021/06/15 03:33:15;;;;;;;;;;;26.10;60.00;;;;;;4926992;29;19949;-82
2021/06/15 03:35:42;;;;;;;;;;;26.20;59.90;;;;;;4928280;29;19956;-82
2021/06/15 03:38:08;;;;;;;;;;;26.30;59.80;;;;;;4959336;28;19945;-82
2021/06/15 03:40:43;;;;;;;;;;;26.40;59.60;;;;;;4927698;28;19934;-82
2021/06/15 03:43:09;;;;;;;;;;;26.50;59.40;;;;;;4926823;28;20416;-82
2021/06/15 03:45:38;;;;;;;;;;;26.50;59.20;;;;;;4927767;29;19964;-82
2021/06/15 03:48:04;;;;;;;;;;;26.60;59.20;;;;;;4927907;29;19996;-82
2021/06/15 03:50:32;;;;;;;;;;;26.80;59.10;;;;;;4927217;29;19973;-88
2021/06/15 03:52:58;;;;;;;;;;;26.90;58.90;;;;;;4927372;29;19984;-81
2021/06/15 03:55:28;;;;;;;;;;;27.00;58.70;;;;;;4927127;29;19929;-80
2021/06/15 03:57:54;;;;;;;;;;;27.20;58.60;;;;;;4928898;28;19938;-82
2021/06/15 04:00:23;;;;;;;;;;;27.30;58.30;;;;;;4911429;29;19938;-81
2021/06/15 04:02:50;;;;;;;;;;;27.40;57.90;;;;;;4912097;29;19944;-81
2021/06/15 04:05:16;;;;;;;;;;;27.60;57.80;;;;;;4927849;29;20024;-81
2021/06/15 04:07:43;;;;;;;;;;;27.70;57.50;;;;;;4927783;29;19939;-82
2021/06/15 04:10:10;;;;;;;;;;;27.90;57.50;;;;;;4927724;29;19994;-82
2021/06/15 04:12:36;;;;;;;;;;;28.20;57.40;;;;;;4928148;29;19930;-83
2021/06/15 04:15:04;;;;;;;;;;;28.40;57.00;;;;;;4975015;28;19941;-84
2021/06/15 04:17:30;;;;;;;;;;;28.50;56.50;;;;;;4943908;28;19930;-82
2021/06/15 04:19:57;;;;;;;;;;;28.50;56.20;;;;;;4943975;28;19957;-85
2021/06/15 04:22:28;;;;;;;;;;;28.50;55.90;;;;;;4943103;29;20297;-81
2021/06/15 04:24:54;;;;;;;;;;;28.40;55.70;;;;;;4926808;29;19957;-82
2021/06/15 04:27:25;;;;;;;;;;;28.40;55.80;;;;;;4926898;29;19934;-82
2021/06/15 04:29:56;;;;;;;;;;;28.40;55.40;;;;;;4944575;28;19934;-82
2021/06/15 04:32:27;;;;;;;;;;;28.40;55.10;;;;;;4927060;29;20431;-82
2021/06/15 04:34:55;;;;;;;;;;;28.40;55.30;;;;;;4927569;29;20451;-83
2021/06/15 04:37:22;;;;;;;;;;;28.60;55.30;;;;;;4927167;29;19931;-83
2021/06/15 04:39:50;;;;;;;;;;;28.70;54.90;;;;;;4927089;28;20302;-83
2021/06/15 04:42:21;;;;;;;;;;;28.80;54.20;;;;;;4927955;29;19945;-81
2021/06/15 04:44:47;;;;;;;;;;;28.90;54.00;;;;;;4926960;29;19942;-81
2021/06/15 04:47:26;;;;;;;;;;;28.90;53.50;;;;;;4926098;29;20020;-83
2021/06/15 04:50:19;;;;;;;;;;;28.90;53.40;;;;;;4973959;28;19985;-82
2021/06/15 04:52:46;;;;;;;;;;;28.80;52.90;;;;;;4942211;29;19938;-82
2021/06/15 04:55:13;;;;;;;;;;;28.70;53.10;;;;;;4926313;29;20354;-84
2021/06/15 04:57:40;;;;;;;;;;;28.70;53.20;;;;;;4924449;29;19934;-84
2021/06/15 05:00:07;;;;;;;;;;;28.80;53.20;;;;;;4926616;29;19937;-84
2021/06/15 05:02:33;;;;;;;;;;;28.90;52.80;;;;;;4925522;29;19944;-83
2021/06/15 05:04:59;;;;;;;;;;;29.00;52.50;;;;;;4926062;29;19934;-83
2021/06/15 05:07:25;;;;;;;;;;;29.20;52.40;;;;;;4941710;29;19962;-83
2021/06/15 05:09:54;;;;;;;;;;;29.30;52.00;;;;;;4926414;28;19930;-83
2021/06/15 05:12:23;;;;;;;;;;;29.40;51.60;;;;;;4925594;28;20553;-84
2021/06/15 05:14:49;;;;;;;;;;;29.50;51.60;;;;;;4942145;29;19989;-84
2021/06/15 05:17:15;;;;;;;;;;;29.60;51.40;;;;;;4942200;29;20407;-85
2021/06/15 05:19:41;;;;;;;;;;;29.70;51.00;;;;;;4942968;28;19945;-84
2021/06/15 05:27:26;;;;;;;;;;;29.90;50.60;;;;;;4326778;32;19951;-84
2021/06/15 05:29:55;;;;;;;;;;;29.90;50.70;;;;;;5022069;28;20015;-84
2021/06/15 05:32:21;;;;;;;;;;;29.90;50.70;;;;;;5022907;28;20023;-84
2021/06/15 05:34:48;;;;;;;;;;;29.80;50.60;;;;;;5022916;28;19928;-85
2021/06/15 05:37:14;;;;;;;;;;;29.70;50.40;;;;;;5021317;28;20419;-83
2021/06/15 05:39:40;;;;;;;;;;;29.60;50.30;;;;;;5037848;28;19943;-83
2021/06/15 05:42:07;;;;;;;;;;;29.50;50.20;;;;;;5037713;28;19940;-83
2021/06/15 05:44:36;;;;;;;;;;;29.30;49.90;;;;;;5036647;28;19974;-85
2021/06/15 05:47:02;;;;;;;;;;;29.10;50.00;;;;;;5002779;28;20483;-82
2021/06/15 05:49:28;;;;;;;;;;;28.90;50.30;;;;;;5035957;28;20018;-86
2021/06/15 05:52:03;;;;;;;;;;;28.90;50.70;;;;;;5020046;28;19978;-86
2021/06/15 05:54:29;;;;;;;;;;;28.80;50.10;;;;;;5037098;28;20411;-84
2021/06/15 05:56:56;;;;;;;;;;;28.70;50.40;;;;;;5020814;28;20391;-84
2021/06/15 05:59:22;;;;;;;;;;;28.60;50.30;;;;;;5003291;28;19929;-83
2021/06/15 06:01:49;;;;;;;;;;;28.60;50.40;;;;;;5019683;28;19986;-83
2021/06/15 06:04:17;;;;;;;;;;;28.70;50.20;;;;;;5035803;28;19933;-85
2021/06/15 06:09:28;;;;;;;;;;;28.80;49.60;;;;;;5022355;28;19932;-84
2021/06/15 06:11:54;;;;;;;;;;;28.90;49.30;;;;;;5019707;28;19928;-84
2021/06/15 06:14:20;;;;;;;;;;;29.10;49.40;;;;;;5020196;28;19940;-84
2021/06/15 06:16:46;;;;;;;;;;;29.20;49.20;;;;;;5003520;28;19986;-85
2021/06/15 06:19:15;;;;;;;;;;;29.30;49.10;;;;;;5020905;28;19932;-85
2021/06/15 06:21:43;;;;;;;;;;;29.60;49.00;;;;;;5036834;28;19932;-84
2021/06/15 06:24:10;;;;;;;;;;;29.90;48.90;;;;;;5020662;28;19929;-83
2021/06/15 06:26:36;;;;;;;;;;;30.20;48.20;;;;;;5018997;28;19933;-84
2021/06/15 06:29:03;;;;;;;;;;;30.70;47.70;;;;;;5036994;28;19936;-84
2021/06/15 06:31:29;;;;;;;;;;;31.10;47.00;;;;;;5035672;28;19932;-84
2021/06/15 06:33:55;;;;;;;;;;;31.60;45.20;;;;;;5036749;28;20269;-83
2021/06/15 06:36:22;;;;;;;;;;;31.90;44.00;;;;;;5034719;28;20394;-85
2021/06/15 06:38:49;;;;;;;;;;;32.00;42.90;;;;;;5023070;28;19943;-85
2021/06/15 06:41:16;;;;;;;;;;;31.90;43.00;;;;;;4991705;28;19928;-86
2021/06/15 06:43:42;;;;;;;;;;;31.90;42.70;;;;;;5022311;28;19929;-84
2021/06/15 06:46:08;;;;;;;;;;;32.00;43.00;;;;;;5023502;28;19947;-85
2021/06/15 06:48:34;;;;;;;;;;;32.40;42.90;;;;;;5005902;28;19941;-86
2021/06/15 06:51:00;;;;;;;;;;;33.30;42.00;;;;;;5005348;28;20062;-85
2021/06/15 06:53:26;;;;;;;;;;;34.70;41.00;;;;;;4990301;28;19933;-86
2021/06/15 06:55:52;;;;;;;;;;;35.80;37.80;;;;;;5022299;28;20009;-86
2021/06/15 06:58:18;;;;;;;;;;;36.10;35.60;;;;;;4990079;28;20398;-85
2021/06/15 07:00:44;;;;;;;;;;;35.80;34.80;;;;;;5022377;28;19967;-85
2021/06/15 07:03:10;;;;;;;;;;;35.40;35.10;;;;;;5005762;28;19929;-86
2021/06/15 07:05:36;;;;;;;;;;;34.70;35.80;;;;;;4989655;28;19955;-85
2021/06/15 07:08:02;;;;;;;;;;;34.20;36.80;;;;;;4990094;28;19948;-88
2021/06/15 07:10:29;;;;;;;;;;;33.70;37.10;;;;;;4989401;28;19936;-86
2021/06/15 07:12:55;;;;;;;;;;;33.30;38.20;;;;;;4989536;28;19928;-86
2021/06/15 07:15:22;;;;;;;;;;;33.00;38.80;;;;;;4990113;28;20051;-86
2021/06/15 07:17:48;;;;;;;;;;;32.80;39.40;;;;;;4976111;28;19948;-84
2021/06/15 07:20:14;;;;;;;;;;;32.90;39.80;;;;;;5023862;28;19969;-86
2021/06/15 07:22:41;;;;;;;;;;;33.20;39.90;;;;;;5008145;28;19948;-86
2021/06/15 07:25:08;;;;;;;;;;;34.20;39.20;;;;;;5007822;28;20308;-88
2021/06/15 07:27:34;;;;;;;;;;;35.90;37.00;;;;;;5027001;28;19932;-85
2021/06/15 07:30:00;;;;;;;;;;;37.90;34.50;;;;;;4978924;28;19985;-86
2021/06/15 07:32:26;;;;;;;;;;;40.20;30.70;;;;;;5026577;28;19928;-87
2021/06/15 07:34:52;;;;;;;;;;;42.30;27.30;;;;;;4992807;28;19936;-85
2021/06/15 07:37:18;;;;;;;;;;;44.10;25.00;;;;;;5030440;28;19993;-84
2021/06/15 07:39:44;;;;;;;;;;;45.40;23.00;;;;;;4996003;28;20393;-85
2021/06/15 07:42:10;;;;;;;;;;;46.10;21.40;;;;;;5026724;28;20402;-84
2021/06/15 07:44:36;;;;;;;;;;;45.90;20.40;;;;;;4993117;28;20322;-85
2021/06/15 07:47:03;;;;;;;;;;;45.40;20.60;;;;;;5025110;28;19936;-85
2021/06/15 07:49:30;;;;;;;;;;;44.40;20.50;;;;;;5007958;28;19929;-85
2021/06/15 07:51:56;;;;;;;;;;;43.20;21.60;;;;;;5044323;28;19928;-86
2021/06/15 07:54:22;;;;;;;;;;;42.20;22.70;;;;;;5010524;28;19943;-86
2021/06/15 07:56:49;;;;;;;;;;;41.20;23.60;;;;;;4992750;28;19928;-86
2021/06/15 07:59:18;;;;;;;;;;;40.30;24.20;;;;;;5008354;28;19933;-89
2021/06/15 08:01:44;;;;;;;;;;;40.00;25.00;;;;;;4992857;28;19932;-86
2021/06/15 08:04:15;;;;;;;;;;;39.70;25.20;;;;;;5042135;28;19929;-86
2021/06/15 08:06:42;;;;;;;;;;;39.50;25.30;;;;;;4993985;28;20361;-84
2021/06/15 08:09:08;;;;;;;;;;;39.40;25.40;;;;;;4991482;28;19947;-84
2021/06/15 08:11:35;;;;;;;;;;;39.40;25.30;;;;;;4990912;28;19928;-84
2021/06/15 08:14:01;;;;;;;;;;;39.80;25.60;;;;;;5007538;28;19977;-86
2021/06/15 08:16:27;;;;;;;;;;;40.80;24.80;;;;;;5043695;28;19939;-84
2021/06/15 08:18:53;;;;;;;;;;;42.00;24.00;;;;;;5008915;28;20003;-91
2021/06/15 08:21:19;;;;;;;;;;;43.90;22.20;;;;;;4992789;28;19928;-83
2021/06/15 08:23:45;;;;;;;;;;;45.50;20.20;;;;;;5042276;28;19936;-84
2021/06/15 08:26:11;;;;;;;;;;;45.70;18.20;;;;;;5040690;28;19981;-84
2021/06/15 08:28:37;;;;;;;;;;;44.90;17.40;;;;;;5041045;28;19932;-84
2021/06/15 08:31:04;;;;;;;;;;;43.80;17.90;;;;;;5041966;28;19978;-85
2021/06/15 08:45:15;;;;;;;;;;;43.00;19.00;;;;;;4328096;32;1071103;-84
2021/06/15 08:47:45;;;;;;;;;;;39.10;23.70;;;;;;5038363;28;20395;-84
2021/06/15 08:50:14;;;;;;;;;;;39.80;23.20;;;;;;5057295;28;20031;-84
2021/06/15 08:52:40;;;;;;;;;;;41.30;21.80;;;;;;5006744;28;20026;-85
2021/06/15 08:55:07;;;;;;;;;;;42.20;19.40;;;;;;5056284;28;19928;-84
2021/06/15 09:08:01;;;;;;;;;;;42.30;19.50;;;;;;4330562;32;1003081;-83
2021/06/15 09:10:30;;;;;;;;;;;39.20;21.80;;;;;;5077266;28;20010;-84
2021/06/15 09:12:56;;;;;;;;;;;39.30;22.00;;;;;;5076636;28;19932;-86
2021/06/15 09:15:23;;;;;;;;;;;39.30;21.90;;;;;;5044374;28;20267;-87
2021/06/15 09:17:49;;;;;;;;;;;39.40;21.70;;;;;;5042768;28;20360;-82
2021/06/15 09:20:20;;;;;;;;;;;39.50;21.50;;;;;;5059079;28;20369;-84
2021/06/15 09:22:55;;;;;;;;;;;39.50;21.40;;;;;;5075811;28;19942;-84
2021/06/15 09:25:22;;;;;;;;;;;39.40;21.80;;;;;;5075087;28;19932;-83
2021/06/15 09:27:51;;;;;;;;;;;39.30;22.10;;;;;;5042934;28;20431;-84
2021/06/15 09:30:18;;;;;;;;;;;39.20;22.40;;;;;;5060164;28;20460;-89
2021/06/15 09:32:46;;;;;;;;;;;39.10;22.10;;;;;;5061209;28;20001;-84
2021/06/15 09:35:14;;;;;;;;;;;39.30;22.30;;;;;;5077706;28;19932;-86
2021/06/15 09:37:48;;;;;;;;;;;39.40;22.00;;;;;;5079020;28;19936;-86
2021/06/15 09:40:23;;;;;;;;;;;39.60;21.90;;;;;;5049661;28;19992;-88
2021/06/15 09:42:55;;;;;;;;;;;39.60;21.80;;;;;;5046891;28;19931;-84
2021/06/15 09:45:24;;;;;;;;;;;39.50;21.80;;;;;;5077141;28;19935;-86
2021/06/15 09:47:51;;;;;;;;;;;39.40;21.80;;;;;;5038941;28;19958;-83
2021/06/15 09:50:20;;;;;;;;;;;39.00;21.20;;;;;;5055444;28;19928;-84
2021/06/15 09:52:46;;;;;;;;;;;38.80;21.30;;;;;;5072531;28;19939;-84
2021/06/15 09:55:13;;;;;;;;;;;38.80;21.40;;;;;;5039702;28;19962;-84
2021/06/15 09:57:41;;;;;;;;;;;38.80;21.40;;;;;;5055290;28;20415;-85
2021/06/15 10:08:07;;;;;;;;;;;38.50;22.20;;;;;;4303033;32;1079613;-84
2021/06/15 10:10:40;;;;;;;;;;;38.50;22.40;;;;;;5077535;28;20401;-87
2021/06/15 10:13:06;;;;;;;;;;;38.50;22.60;;;;;;5044393;28;20009;-87
2021/06/15 10:15:34;;;;;;;;;;;38.50;22.90;;;;;;5077778;28;19928;-84
2021/06/15 10:18:00;;;;;;;;;;;38.50;22.90;;;;;;5060970;28;19928;-86
2021/06/15 10:20:30;;;;;;;;;;;38.30;22.80;;;;;;5028403;28;19992;-85
2021/06/15 10:22:57;;;;;;;;;;;38.00;23.20;;;;;;5044327;28;19939;-85
2021/06/15 10:25:25;;;;;;;;;;;37.50;23.60;;;;;;5044907;28;19998;-87
2021/06/15 10:27:51;;;;;;;;;;;37.20;24.10;;;;;;5027230;28;19932;-86
2021/06/15 10:30:18;;;;;;;;;;;37.10;24.60;;;;;;5044196;28;19939;-85
2021/06/15 10:32:59;;;;;;;;;;;37.00;24.90;;;;;;5028517;28;20417;-85
2021/06/15 10:35:32;;;;;;;;;;;36.80;24.70;;;;;;5045050;28;19946;-86
2021/06/15 10:37:59;;;;;;;;;;;36.70;25.10;;;;;;5028066;28;19939;-85
2021/06/15 10:40:26;;;;;;;;;;;36.50;25.70;;;;;;5063366;28;19981;-84
2021/06/15 10:43:11;;;;;;;;;;;36.30;25.90;;;;;;5044705;28;19943;-84
2021/06/15 10:45:39;;;;;;;;;;;36.20;26.00;;;;;;5060139;28;20050;-85
2021/06/15 10:48:05;;;;;;;;;;;35.90;26.20;;;;;;5034206;28;19940;-85
2021/06/15 10:50:42;;;;;;;;;;;35.80;26.60;;;;;;5038924;28;19951;-85
2021/06/15 10:53:09;;;;;;;;;;;35.60;26.80;;;;;;5023372;28;20399;-85
2021/06/15 10:55:46;;;;;;;;;;;35.30;27.30;;;;;;5023515;28;20061;-85
2021/06/15 10:58:13;;;;;;;;;;;35.20;27.80;;;;;;5023170;28;19932;-83
2021/06/15 11:00:43;;;;;;;;;;;35.00;28.00;;;;;;5006368;28;20024;-84
2021/06/15 11:03:15;;;;;;;;;;;35.00;27.90;;;;;;5041257;28;19928;-85
2021/06/15 11:05:51;;;;;;;;;;;34.90;27.90;;;;;;5023749;28;19958;-84
2021/06/15 11:08:25;;;;;;;;;;;34.90;27.90;;;;;;5055649;28;19981;-84
2021/06/15 11:10:59;;;;;;;;;;;34.80;28.10;;;;;;5039176;28;19940;-85
2021/06/15 11:13:42;;;;;;;;;;;34.80;28.50;;;;;;5023258;28;19936;-85
2021/06/15 11:16:33;;;;;;;;;;;34.80;28.50;;;;;;5038823;28;19932;-86
2021/06/15 11:19:11;;;;;;;;;;;34.70;27.50;;;;;;5012372;28;19932;-85
2021/06/15 11:21:43;;;;;;;;;;;34.60;27.30;;;;;;5041964;28;20019;-86
2021/06/15 11:24:33;;;;;;;;;;;34.40;27.60;;;;;;5042408;28;20406;-85
2021/06/15 11:27:01;;;;;;;;;;;34.40;27.80;;;;;;4993343;28;19943;-85
2021/06/15 11:29:36;;;;;;;;;;;34.40;27.80;;;;;;5025528;28;19928;-86
2021/06/15 11:32:16;;;;;;;;;;;34.40;27.40;;;;;;5026094;28;20019;-87
2021/06/15 11:34:55;;;;;;;;;;;34.50;27.30;;;;;;5042118;28;19928;-86
2021/06/15 11:37:37;;;;;;;;;;;34.50;26.80;;;;;;5042463;28;19932;-84
2021/06/15 11:40:20;;;;;;;;;;;34.50;26.60;;;;;;5026306;28;19960;-85
2021/06/15 11:42:56;;;;;;;;;;;34.60;27.00;;;;;;5027444;28;19938;-84
2021/06/15 11:45:30;;;;;;;;;;;34.70;27.00;;;;;;5011481;28;19934;-85
2021/06/15 11:48:18;;;;;;;;;;;34.70;26.80;;;;;;5041255;28;20384;-85
2021/06/15 11:50:46;;;;;;;;;;;34.80;26.40;;;;;;5041391;28;19936;-84
2021/06/15 11:53:12;;;;;;;;;;;34.80;26.20;;;;;;5026179;28;19940;-86
2021/06/15 11:55:46;;;;;;;;;;;34.90;25.80;;;;;;5041478;28;20061;-86
2021/06/15 11:58:21;;;;;;;;;;;34.90;25.20;;;;;;5009271;28;19928;-85
2021/06/15 12:00:52;;;;;;;;;;;34.90;24.40;;;;;;5008343;28;20334;-86
2021/06/15 12:03:19;;;;;;;;;;;34.80;23.30;;;;;;5008868;28;19932;-87
2021/06/15 12:05:47;;;;;;;;;;;34.70;23.40;;;;;;5008300;28;20330;-85
2021/06/15 12:08:13;;;;;;;;;;;34.60;24.10;;;;;;5008424;28;19944;-85
2021/06/15 12:10:40;;;;;;;;;;;34.70;24.50;;;;;;5009498;28;19936;-86
2021/06/15 12:13:14;;;;;;;;;;;34.70;24.60;;;;;;5033425;28;19936;-87
2021/06/15 12:15:52;;;;;;;;;;;34.80;24.70;;;;;;5013530;28;19936;-85
2021/06/15 12:18:21;;;;;;;;;;;34.90;24.50;;;;;;5029808;28;20406;-85
2021/06/15 12:20:55;;;;;;;;;;;35.00;24.60;;;;;;5045020;28;19936;-87
2021/06/15 12:23:34;;;;;;;;;;;35.20;23.40;;;;;;5044181;28;19932;-86
2021/06/15 12:26:10;;;;;;;;;;;35.30;22.30;;;;;;5025923;28;19928;-88
2021/06/15 12:28:42;;;;;;;;;;;35.30;21.40;;;;;;5043539;28;19936;-86
2021/06/15 12:31:14;;;;;;;;;;;35.20;21.10;;;;;;5026422;28;19932;-87
2021/06/15 12:33:41;;;;;;;;;;;35.10;21.40;;;;;;5026355;28;19974;-85
2021/06/15 12:36:09;;;;;;;;;;;35.00;21.90;;;;;;4992503;28;20322;-87
2021/06/15 12:38:36;;;;;;;;;;;34.90;22.40;;;;;;5042439;28;19928;-89
2021/06/15 12:41:05;;;;;;;;;;;34.90;23.00;;;;;;5043149;28;20017;-88
2021/06/15 12:43:31;;;;;;;;;;;34.80;23.30;;;;;;5024643;28;20330;-84
2021/06/15 12:46:09;;;;;;;;;;;34.80;23.50;;;;;;5042085;28;20098;-86
2021/06/15 12:48:43;;;;;;;;;;;34.80;23.80;;;;;;5024191;28;19948;-84
2021/06/15 12:51:11;;;;;;;;;;;34.70;24.00;;;;;;5007777;28;19936;-85
2021/06/15 12:53:39;;;;;;;;;;;34.70;24.60;;;;;;5007304;28;19928;-84
2021/06/15 12:56:18;;;;;;;;;;;34.70;24.40;;;;;;5007650;28;19954;-85
2021/06/15 12:58:45;;;;;;;;;;;34.80;24.40;;;;;;5024073;28;19936;-87
2021/06/15 13:02:39;;;;;;;;;;;34.80;24.50;;;;;;4300686;32;1073359;-85
2021/06/15 13:05:06;;;;;;;;;;;34.80;24.70;;;;;;5023147;28;19931;-84
2021/06/15 13:07:33;;;;;;;;;;;34.80;24.90;;;;;;5023177;28;19985;-83
2021/06/15 13:10:17;;;;;;;;;;;34.80;25.20;;;;;;5023151;28;20365;-84
2021/06/15 13:12:47;;;;;;;;;;;34.80;25.50;;;;;;5024096;28;19932;-84
2021/06/15 13:15:18;;;;;;;;;;;34.70;25.60;;;;;;5023916;28;19928;-84
2021/06/15 13:18:04;;;;;;;;;;;34.70;25.80;;;;;;5008205;28;19928;-85
2021/06/15 13:20:30;;;;;;;;;;;34.70;25.80;;;;;;5025444;28;21839;-84
2021/06/15 13:22:57;;;;;;;;;;;34.80;25.90;;;;;;5023793;28;19954;-85
2021/06/15 13:25:29;;;;;;;;;;;34.80;25.90;;;;;;5023635;28;19928;-84
2021/06/15 13:27:55;;;;;;;;;;;34.80;26.00;;;;;;5007973;28;19932;-83
2021/06/15 13:30:23;;;;;;;;;;;34.70;26.10;;;;;;5007411;28;19932;-84
2021/06/15 13:33:00;;;;;;;;;;;34.60;26.20;;;;;;5008014;28;19932;-83
2021/06/15 13:35:26;;;;;;;;;;;34.40;26.30;;;;;;5042632;28;19932;-84
2021/06/15 13:37:54;;;;;;;;;;;34.30;26.50;;;;;;5039962;28;19928;-85
2021/06/15 13:40:32;;;;;;;;;;;34.30;26.60;;;;;;5007505;28;19932;-84
2021/06/15 13:42:59;;;;;;;;;;;34.20;26.70;;;;;;5023501;28;20026;-84
2021/06/15 13:45:30;;;;;;;;;;;34.20;26.70;;;;;;5038560;28;20045;-86
2021/06/15 13:47:56;;;;;;;;;;;34.20;26.70;;;;;;5004170;28;19928;-84
2021/06/15 13:50:22;;;;;;;;;;;34.20;26.60;;;;;;5003737;28;19933;-85
2021/06/15 13:52:48;;;;;;;;;;;34.30;26.60;;;;;;5002965;28;20006;-86
2021/06/15 13:55:15;;;;;;;;;;;34.40;26.50;;;;;;4988686;28;19962;-86
2021/06/15 13:57:42;;;;;;;;;;;34.40;26.40;;;;;;4993638;28;19932;-85
2021/06/15 14:00:10;;;;;;;;;;;34.40;26.30;;;;;;5013489;28;19940;-86
2021/06/15 14:02:36;;;;;;;;;;;34.50;26.30;;;;;;5030107;28;19936;-88
2021/06/15 14:05:03;;;;;;;;;;;34.50;26.30;;;;;;5012543;28;19936;-84
2021/06/15 14:07:29;;;;;;;;;;;34.50;26.30;;;;;;5041866;28;19940;-85
2021/06/15 14:09:55;;;;;;;;;;;34.40;26.40;;;;;;5011734;28;19928;-88
2021/06/15 14:12:23;;;;;;;;;;;34.30;26.50;;;;;;5045145;28;19937;-88
2021/06/15 14:14:49;;;;;;;;;;;34.20;26.70;;;;;;5037544;28;19932;-90
2021/06/15 14:17:15;;;;;;;;;;;34.20;26.70;;;;;;5037817;28;19944;-86
2021/06/15 14:19:41;;;;;;;;;;;34.00;26.80;;;;;;5030897;28;19928;-86
2021/06/15 14:22:08;;;;;;;;;;;33.90;27.00;;;;;;5028099;28;20424;-86
2021/06/15 14:24:34;;;;;;;;;;;33.80;27.50;;;;;;4994487;28;20454;-92
2021/06/15 14:27:03;;;;;;;;;;;33.70;28.00;;;;;;4993929;28;19960;-85
2021/06/15 14:29:30;;;;;;;;;;;33.60;28.20;;;;;;5009890;28;20007;-88
2021/06/15 14:31:57;;;;;;;;;;;33.50;28.40;;;;;;5009370;28;19933;-88
2021/06/15 14:34:24;;;;;;;;;;;33.50;28.60;;;;;;5022620;28;20339;-88
2021/06/15 14:36:50;;;;;;;;;;;33.40;28.70;;;;;;4989808;28;19944;-88
2021/06/15 14:39:17;;;;;;;;;;;33.40;29.00;;;;;;4989934;28;19936;-89
2021/06/15 14:41:43;;;;;;;;;;;33.30;29.40;;;;;;4991069;28;20288;-87
2021/06/15 14:44:09;;;;;;;;;;;33.30;29.50;;;;;;5022344;28;20335;-87
2021/06/15 14:46:36;;;;;;;;;;;33.30;29.70;;;;;;5039252;28;19932;-88
2021/06/15 14:49:04;;;;;;;;;;;33.30;29.90;;;;;;5022798;28;20050;-87
2021/06/15 14:51:30;;;;;;;;;;;33.30;30.00;;;;;;4990568;28;19932;-88
2021/06/15 14:54:04;;;;;;;;;;;33.30;30.30;;;;;;4991178;28;19933;-88
2021/06/15 14:56:34;;;;;;;;;;;33.30;30.10;;;;;;4993526;28;19966;-89
2021/06/15 14:59:00;;;;;;;;;;;33.30;30.10;;;;;;5010707;28;19940;-84
2021/06/15 15:01:27;;;;;;;;;;;33.40;30.20;;;;;;5032862;28;20027;-90
2021/06/15 15:03:53;;;;;;;;;;;33.40;30.00;;;;;;5025263;28;19959;-88
2021/06/15 15:06:20;;;;;;;;;;;33.30;29.70;;;;;;5042552;28;19976;-86